createdAt,value
2023-04-23T00:00:36.842Z,14.78
2023-04-23T00:01:41.136Z,14.77
2023-04-23T00:02:50.237Z,14.77
2023-04-23T00:03:57.830Z,14.76
2023-04-23T00:05:06.492Z,14.76
2023-04-23T00:06:13.174Z,14.76
2023-04-23T00:07:15.643Z,14.75
2023-04-23T00:08:19.576Z,14.74
2023-04-23T00:09:23.188Z,14.75
2023-04-23T00:10:27.245Z,14.72
2023-04-23T00:11:30.055Z,14.73
2023-04-23T00:12:32.618Z,14.71
2023-04-23T00:13:35.821Z,14.72
2023-04-23T00:14:38.287Z,14.71
2023-04-23T00:15:40.840Z,14.70
2023-04-23T00:16:43.387Z,14.71
2023-04-23T00:17:45.672Z,14.70
2023-04-23T00:18:48.309Z,14.69
2023-04-23T00:19:51.893Z,14.69
2023-04-23T00:20:54.157Z,14.68
2023-04-23T00:21:56.432Z,14.66
2023-04-23T00:23:00.163Z,14.67
2023-04-23T00:24:02.471Z,14.64
2023-04-23T00:25:05.003Z,14.66
2023-04-23T00:26:07.249Z,14.64
2023-04-23T00:27:09.580Z,14.66
2023-04-23T00:28:11.840Z,14.64
2023-04-23T00:29:15.477Z,14.65
2023-04-23T00:30:19.046Z,14.65
2023-04-23T00:31:22.830Z,14.64
2023-04-23T00:32:25.209Z,14.62
2023-04-23T00:33:27.453Z,14.64
2023-04-23T00:34:30.042Z,14.64
2023-04-23T00:35:32.322Z,14.63
2023-04-23T00:36:34.598Z,14.63
2023-04-23T00:37:37.061Z,14.63
2023-04-23T00:38:39.329Z,14.63
2023-04-23T00:39:41.550Z,14.63
2023-04-23T00:40:43.913Z,14.64
2023-04-23T00:41:46.292Z,14.63
2023-04-23T00:42:53.240Z,14.63
2023-04-23T00:43:57.557Z,14.64
2023-04-23T00:45:01.471Z,14.63
2023-04-23T00:46:04.020Z,14.62
2023-04-23T00:47:08.193Z,14.63
2023-04-23T00:48:11.907Z,14.62
2023-04-23T00:49:15.592Z,14.62
2023-04-23T00:50:18.242Z,14.61
2023-04-23T00:51:22.131Z,14.61
2023-04-23T00:52:24.447Z,14.60
2023-04-23T00:53:27.547Z,14.59
2023-04-23T00:54:30.004Z,14.58
2023-04-23T00:55:33.108Z,14.58
2023-04-23T00:56:35.595Z,14.59
2023-04-23T00:57:38.889Z,14.56
2023-04-23T00:58:41.816Z,14.56
2023-04-23T00:59:45.260Z,14.54
2023-04-23T01:00:49.313Z,14.54
2023-04-23T01:01:52.680Z,14.53
2023-04-23T01:02:55.348Z,14.53
2023-04-23T01:03:59.100Z,14.51
2023-04-23T01:05:05.132Z,14.51
2023-04-23T01:06:07.576Z,14.51
2023-04-23T01:07:12.190Z,14.49
2023-04-23T01:08:16.545Z,14.49
2023-04-23T01:09:19.201Z,14.48
2023-04-23T01:10:21.801Z,14.47
2023-04-23T01:11:24.371Z,14.46
2023-04-23T01:12:26.897Z,14.45
2023-04-23T01:13:30.489Z,14.43
2023-04-23T01:14:33.579Z,14.44
2023-04-23T01:15:35.992Z,14.42
2023-04-23T01:16:38.966Z,14.43
2023-04-23T01:17:41.503Z,14.41
2023-04-23T01:18:44.825Z,14.41
2023-04-23T01:19:47.218Z,14.40
2023-04-23T01:20:49.828Z,14.40
2023-04-23T01:21:53.400Z,14.39
2023-04-23T01:22:56.436Z,14.37
2023-04-23T01:23:58.703Z,14.37
2023-04-23T01:25:01.196Z,14.36
2023-04-23T01:26:03.738Z,14.35
2023-04-23T01:27:06.436Z,14.33
2023-04-23T01:28:08.938Z,14.34
2023-04-23T01:29:11.823Z,14.32
2023-04-23T01:30:14.465Z,14.32
2023-04-23T01:31:17.506Z,14.30
2023-04-23T01:32:21.296Z,14.31
2023-04-23T01:33:23.752Z,14.28
2023-04-23T01:34:26.085Z,14.27
2023-04-23T01:35:30.071Z,14.25
2023-04-23T01:36:33.483Z,14.25
2023-04-23T01:37:38.531Z,14.24
2023-04-23T01:38:42.269Z,14.23
2023-04-23T01:39:44.536Z,14.22
2023-04-23T01:40:46.821Z,14.22
2023-04-23T01:41:49.792Z,14.22
2023-04-23T01:42:52.488Z,14.19
2023-04-23T01:43:57.359Z,14.18
2023-04-23T01:44:59.713Z,14.15
2023-04-23T01:46:02.101Z,14.16
2023-04-23T01:47:06.849Z,14.15
2023-04-23T01:48:10.405Z,14.15
2023-04-23T01:49:12.851Z,14.13
2023-04-23T01:50:15.516Z,14.14
2023-04-23T01:51:18.022Z,14.13
2023-04-23T01:52:20.459Z,14.11
2023-04-23T01:53:22.738Z,14.11
2023-04-23T01:54:25.115Z,14.10
2023-04-23T01:55:27.641Z,14.09
2023-04-23T01:56:30.891Z,14.08
2023-04-23T01:57:33.256Z,14.08
2023-04-23T01:58:35.897Z,14.07
2023-04-23T01:59:38.942Z,14.07
2023-04-23T02:00:41.492Z,14.06
2023-04-23T02:01:45.173Z,14.06
2023-04-23T02:02:47.729Z,14.04
2023-04-23T02:03:51.346Z,14.03
2023-04-23T02:04:54.925Z,14.03
2023-04-23T02:05:59.156Z,14.04
2023-04-23T02:07:02.626Z,14.02
2023-04-23T02:08:05.017Z,14.02
2023-04-23T02:09:08.017Z,13.99
2023-04-23T02:10:10.856Z,14.01
2023-04-23T02:11:13.245Z,14.00
2023-04-23T02:12:16.567Z,13.99
2023-04-23T02:13:18.988Z,13.98
2023-04-23T02:14:21.503Z,13.97
2023-04-23T02:15:23.827Z,13.97
2023-04-23T02:16:28.713Z,13.97
2023-04-23T02:17:31.225Z,13.96
2023-04-23T02:18:33.480Z,13.95
2023-04-23T02:19:36.112Z,13.95
2023-04-23T02:20:40.975Z,13.93
2023-04-23T02:21:43.621Z,13.92
2023-04-23T02:22:47.310Z,13.90
2023-04-23T02:23:52.378Z,13.88
2023-04-23T02:24:55.226Z,13.88
2023-04-23T02:25:57.636Z,13.88
2023-04-23T02:26:59.917Z,13.86
2023-04-23T02:28:05.560Z,13.85
2023-04-23T02:29:07.797Z,13.85
2023-04-23T02:30:11.762Z,13.83
2023-04-23T02:31:14.254Z,13.82
2023-04-23T02:32:16.521Z,13.83
2023-04-23T02:33:19.878Z,13.81
2023-04-23T02:34:22.133Z,13.82
2023-04-23T02:35:24.772Z,13.82
2023-04-23T02:36:29.025Z,13.79
2023-04-23T02:37:32.749Z,13.80
2023-04-23T02:38:34.995Z,13.79
2023-04-23T02:39:39.337Z,13.79
2023-04-23T02:40:41.749Z,13.78
2023-04-23T02:41:44.040Z,13.78
2023-04-23T02:42:46.367Z,13.77
2023-04-23T02:43:48.593Z,13.76
2023-04-23T02:44:50.839Z,13.76
2023-04-23T02:45:53.077Z,13.75
2023-04-23T02:46:55.376Z,13.75
2023-04-23T02:47:58.222Z,13.74
2023-04-23T02:49:00.676Z,13.74
2023-04-23T02:50:06.048Z,13.72
2023-04-23T02:51:13.264Z,13.72
2023-04-23T02:52:15.686Z,13.71
2023-04-23T02:53:17.904Z,13.71
2023-04-23T02:54:20.491Z,13.69
2023-04-23T02:55:22.827Z,13.68
2023-04-23T02:56:25.666Z,13.70
2023-04-23T02:57:28.764Z,13.71
2023-04-23T02:58:31.290Z,13.69
2023-04-23T02:59:36.348Z,13.69
2023-04-23T03:00:38.651Z,13.69
2023-04-23T03:01:41.521Z,13.67
2023-04-23T03:02:45.934Z,13.67
2023-04-23T03:03:48.682Z,13.67
2023-04-23T03:04:51.894Z,13.67
2023-04-23T03:05:55.175Z,13.65
2023-04-23T03:06:57.694Z,13.66
2023-04-23T03:07:59.919Z,13.64
2023-04-23T03:09:02.686Z,13.64
2023-04-23T03:10:05.763Z,13.64
2023-04-23T03:11:09.185Z,13.62
2023-04-23T03:12:11.698Z,13.61
2023-04-23T03:13:14.227Z,13.63
2023-04-23T03:14:16.609Z,13.62
2023-04-23T03:15:19.258Z,13.62
2023-04-23T03:16:22.017Z,13.63
2023-04-23T03:17:24.353Z,13.63
2023-04-23T03:18:26.849Z,13.61
2023-04-23T03:19:30.180Z,13.61
2023-04-23T03:20:32.891Z,13.62
2023-04-23T03:21:35.776Z,13.61
2023-04-23T03:22:38.051Z,13.62
2023-04-23T03:23:40.731Z,13.62
2023-04-23T03:24:43.520Z,13.62
2023-04-23T03:25:47.349Z,13.63
2023-04-23T03:26:49.710Z,13.62
2023-04-23T03:27:52.766Z,13.63
2023-04-23T03:28:55.007Z,13.62
2023-04-23T03:29:57.313Z,13.61
2023-04-23T03:30:59.731Z,13.61
2023-04-23T03:32:02.371Z,13.61
2023-04-23T03:33:05.173Z,13.61
2023-04-23T03:34:07.517Z,13.59
2023-04-23T03:35:11.758Z,13.60
2023-04-23T03:36:18.317Z,13.58
2023-04-23T03:37:20.747Z,13.59
2023-04-23T03:38:23.010Z,13.59
2023-04-23T03:39:27.086Z,13.58
2023-04-23T03:40:31.254Z,13.57
2023-04-23T03:41:37.132Z,13.57
2023-04-23T03:42:39.420Z,13.57
2023-04-23T03:43:42.240Z,13.58
2023-04-23T03:44:52.556Z,13.58
2023-04-23T03:45:54.945Z,13.59
2023-04-23T03:46:57.903Z,13.58
2023-04-23T03:48:00.261Z,13.58
2023-04-23T03:49:04.011Z,13.57
2023-04-23T03:50:08.481Z,13.57
2023-04-23T03:51:10.723Z,13.58
2023-04-23T03:52:17.913Z,13.58
2023-04-23T03:53:20.373Z,13.57
2023-04-23T03:54:58.123Z,13.57
2023-04-23T03:56:06.349Z,13.58
2023-04-23T03:57:14.294Z,13.59
2023-04-23T03:58:46.160Z,13.58
2023-04-23T03:59:48.443Z,13.58
2023-04-23T04:00:51.304Z,13.58
2023-04-23T04:01:53.703Z,13.59
2023-04-23T04:02:57.509Z,13.58
2023-04-23T04:04:02.306Z,13.57
2023-04-23T04:05:07.873Z,13.56
2023-04-23T04:06:10.392Z,13.55
2023-04-23T04:07:13.259Z,13.55
2023-04-23T04:08:15.729Z,13.54
2023-04-23T04:09:18.043Z,13.54
2023-04-23T04:10:21.457Z,13.54
2023-04-23T04:11:23.695Z,13.53
2023-04-23T04:12:25.988Z,13.52
2023-04-23T04:13:28.234Z,13.52
2023-04-23T04:14:31.843Z,13.52
2023-04-23T04:15:34.144Z,13.53
2023-04-23T04:16:36.557Z,13.53
2023-04-23T04:17:41.311Z,13.52
2023-04-23T04:18:43.674Z,13.51
2023-04-23T04:19:46.468Z,13.52
2023-04-23T04:20:49.036Z,13.51
2023-04-23T04:21:51.635Z,13.50
2023-04-23T04:22:53.942Z,13.50
2023-04-23T04:23:56.543Z,13.49
2023-04-23T04:24:58.777Z,13.50
2023-04-23T04:26:01.084Z,13.48
2023-04-23T04:27:03.750Z,13.48
2023-04-23T04:28:12.057Z,13.48
2023-04-23T04:29:15.265Z,13.48
2023-04-23T04:30:17.593Z,13.48
2023-04-23T04:31:22.176Z,13.47
2023-04-23T04:32:24.500Z,13.48
2023-04-23T04:33:27.040Z,13.48
2023-04-23T04:34:29.488Z,13.48
2023-04-23T04:35:31.755Z,13.49
2023-04-23T04:36:35.385Z,13.48
2023-04-23T04:37:37.667Z,13.49
2023-04-23T04:38:40.648Z,13.48
2023-04-23T04:39:44.307Z,13.47
2023-04-23T04:40:46.582Z,13.48
2023-04-23T04:41:48.819Z,13.49
2023-04-23T04:42:53.181Z,13.49
2023-04-23T04:43:55.427Z,13.50
2023-04-23T04:44:59.744Z,13.50
2023-04-23T04:46:02.018Z,13.50
2023-04-23T04:47:04.603Z,13.52
2023-04-23T04:48:06.915Z,13.53
2023-04-23T04:49:11.164Z,13.53
2023-04-23T04:50:13.386Z,13.53
2023-04-23T04:51:16.178Z,13.54
2023-04-23T04:52:18.572Z,13.55
2023-04-23T04:53:20.983Z,13.55
2023-04-23T04:54:23.207Z,13.56
2023-04-23T04:55:25.674Z,13.56
2023-04-23T04:56:28.348Z,13.56
2023-04-23T04:57:30.581Z,13.58
2023-04-23T04:58:32.831Z,13.58
2023-04-23T04:59:35.210Z,13.60
2023-04-23T05:00:38.157Z,13.61
2023-04-23T05:01:40.472Z,13.62
2023-04-23T05:02:42.809Z,13.64
2023-04-23T05:03:45.238Z,13.65
2023-04-23T05:04:47.727Z,13.66
2023-04-23T05:05:49.967Z,13.67
2023-04-23T05:06:52.271Z,13.69
2023-04-23T05:07:55.432Z,13.71
2023-04-23T05:08:58.515Z,13.72
2023-04-23T05:10:01.027Z,13.74
2023-04-23T05:11:04.116Z,13.77
2023-04-23T05:12:07.639Z,13.79
2023-04-23T05:13:11.179Z,13.81
2023-04-23T05:14:13.484Z,13.83
2023-04-23T05:15:15.828Z,13.85
2023-04-23T05:16:18.861Z,13.88
2023-04-23T05:17:21.160Z,13.90
2023-04-23T05:18:23.476Z,13.93
2023-04-23T05:19:25.723Z,13.96
2023-04-23T05:20:28.257Z,13.96
2023-04-23T05:21:31.788Z,13.99
2023-04-23T05:22:34.057Z,14.02
2023-04-23T05:23:37.274Z,14.04
2023-04-23T05:24:39.752Z,14.07
2023-04-23T05:25:42.219Z,14.11
2023-04-23T05:26:44.452Z,14.14
2023-04-23T05:27:47.793Z,14.15
2023-04-23T05:28:50.073Z,14.19
2023-04-23T05:29:52.356Z,14.20
2023-04-23T05:30:54.635Z,14.24
2023-04-23T05:31:57.049Z,14.28
2023-04-23T05:32:59.450Z,14.29
2023-04-23T05:34:01.708Z,14.31
2023-04-23T05:35:04.613Z,14.33
2023-04-23T05:36:08.540Z,14.37
2023-04-23T05:37:11.244Z,14.41
2023-04-23T05:38:13.566Z,14.43
2023-04-23T05:39:15.844Z,14.46
2023-04-23T05:40:18.140Z,14.48
2023-04-23T05:41:20.441Z,14.51
2023-04-23T05:42:23.244Z,14.54
2023-04-23T05:43:25.692Z,14.57
2023-04-23T05:44:31.078Z,14.57
2023-04-23T05:45:33.474Z,14.61
2023-04-23T05:46:36.141Z,14.63
2023-04-23T05:47:38.406Z,14.66
2023-04-23T05:48:40.804Z,14.68
2023-04-23T05:49:43.137Z,14.71
2023-04-23T05:50:45.584Z,14.73
2023-04-23T05:51:47.920Z,14.76
2023-04-23T05:52:50.255Z,14.76
2023-04-23T05:53:52.529Z,14.80
2023-04-23T05:54:55.919Z,14.81
2023-04-23T05:55:59.943Z,14.86
2023-04-23T05:57:03.205Z,14.90
2023-04-23T05:58:06.343Z,14.95
2023-04-23T05:59:08.618Z,14.99
2023-04-23T06:00:11.955Z,15.03
2023-04-23T06:01:18.207Z,15.10
2023-04-23T06:02:23.980Z,15.17
2023-04-23T06:03:27.464Z,15.25
2023-04-23T06:04:30.060Z,15.31
2023-04-23T06:05:33.892Z,15.40
2023-04-23T06:06:36.200Z,15.48
2023-04-23T06:07:40.807Z,15.58
2023-04-23T06:08:44.886Z,15.67
2023-04-23T06:09:47.474Z,15.78
2023-04-23T06:10:49.727Z,15.88
2023-04-23T06:11:53.505Z,15.99
2023-04-23T06:12:57.620Z,16.11
2023-04-23T06:13:59.999Z,16.23
2023-04-23T06:15:02.514Z,16.36
2023-04-23T06:16:04.996Z,16.49
2023-04-23T06:17:07.977Z,16.65
2023-04-23T06:18:14.293Z,16.78
2023-04-23T06:19:16.990Z,16.93
2023-04-23T06:20:20.659Z,17.07
2023-04-23T06:21:23.500Z,17.20
2023-04-23T06:22:25.817Z,17.34
2023-04-23T06:23:28.219Z,17.47
2023-04-23T06:24:30.521Z,17.60
2023-04-23T06:25:33.394Z,17.72
2023-04-23T06:26:35.911Z,17.85
2023-04-23T06:27:46.964Z,17.98
2023-04-23T06:28:55.408Z,18.09
2023-04-23T06:30:04.815Z,18.20
2023-04-23T06:31:08.271Z,18.29
2023-04-23T06:32:11.033Z,18.38
2023-04-23T06:33:13.604Z,18.44
2023-04-23T06:34:17.021Z,18.51
2023-04-23T06:35:19.384Z,18.58
2023-04-23T06:36:21.871Z,18.65
2023-04-23T06:37:28.152Z,18.69
2023-04-23T06:38:32.148Z,18.71
2023-04-23T06:39:34.489Z,18.75
2023-04-23T06:40:36.742Z,18.77
2023-04-23T06:41:39.233Z,18.80
2023-04-23T06:42:53.030Z,18.83
2023-04-23T06:44:10.676Z,18.84
2023-04-23T06:45:18.037Z,18.84
2023-04-23T06:46:20.709Z,18.85
2023-04-23T06:47:22.999Z,18.87
2023-04-23T06:48:29.344Z,18.86
2023-04-23T06:49:31.603Z,18.86
2023-04-23T06:50:33.862Z,18.85
2023-04-23T06:51:36.268Z,18.83
2023-04-23T06:52:39.666Z,18.82
2023-04-23T06:53:45.066Z,18.82
2023-04-23T06:54:47.714Z,18.80
2023-04-23T06:55:52.978Z,18.80
2023-04-23T06:56:57.175Z,18.77
2023-04-23T06:57:59.430Z,18.76
2023-04-23T06:59:02.530Z,18.74
2023-04-23T07:00:09.461Z,18.72
2023-04-23T07:01:14.451Z,18.71
2023-04-23T07:02:16.845Z,18.70
2023-04-23T07:03:19.762Z,18.65
2023-04-23T07:04:22.134Z,18.61
2023-04-23T07:05:24.670Z,18.58
2023-04-23T07:06:28.068Z,18.56
2023-04-23T07:07:30.373Z,18.50
2023-04-23T07:08:32.693Z,18.49
2023-04-23T07:09:35.130Z,18.47
2023-04-23T07:10:37.884Z,18.43
2023-04-23T07:11:40.909Z,18.41
2023-04-23T07:12:46.184Z,18.41
2023-04-23T07:13:49.388Z,18.38
2023-04-23T07:14:54.568Z,18.36
2023-04-23T07:15:58.352Z,18.35
2023-04-23T07:17:00.738Z,18.35
2023-04-23T07:18:03.853Z,18.32
2023-04-23T07:19:07.274Z,18.31
2023-04-23T07:20:09.805Z,18.29
2023-04-23T07:21:13.629Z,18.28
2023-04-23T07:22:15.986Z,18.27
2023-04-23T07:23:18.241Z,18.26
2023-04-23T07:24:20.652Z,18.24
2023-04-23T07:25:24.943Z,18.21
2023-04-23T07:26:30.882Z,18.22
2023-04-23T07:27:33.143Z,18.20
2023-04-23T07:28:35.508Z,18.17
2023-04-23T07:29:39.352Z,18.17
2023-04-23T07:30:41.680Z,18.15
2023-04-23T07:31:44.718Z,18.13
2023-04-23T07:32:48.831Z,18.11
2023-04-23T07:33:51.323Z,18.11
2023-04-23T07:34:56.281Z,18.10
2023-04-23T07:35:58.540Z,18.09
2023-04-23T07:37:00.817Z,18.09
2023-04-23T07:38:04.521Z,18.06
2023-04-23T07:39:06.854Z,18.05
2023-04-23T07:40:09.484Z,18.04
2023-04-23T07:41:11.875Z,18.03
2023-04-23T07:42:15.801Z,18.01
2023-04-23T07:43:18.178Z,18.00
2023-04-23T07:44:20.592Z,17.98
2023-04-23T07:45:23.164Z,17.97
2023-04-23T07:46:25.653Z,17.96
2023-04-23T07:47:28.076Z,17.92
2023-04-23T07:48:30.765Z,17.90
2023-04-23T07:49:32.978Z,17.88
2023-04-23T07:50:36.748Z,17.88
2023-04-23T07:51:39.130Z,17.87
2023-04-23T07:52:41.949Z,17.87
2023-04-23T07:53:44.277Z,17.86
2023-04-23T07:54:47.105Z,17.85
2023-04-23T07:55:49.532Z,17.84
2023-04-23T07:56:52.917Z,17.84
2023-04-23T07:57:55.276Z,17.84
2023-04-23T07:59:00.647Z,17.84
2023-04-23T08:00:03.524Z,17.85
2023-04-23T08:01:14.865Z,17.88
2023-04-23T08:02:18.684Z,17.90
2023-04-23T08:03:21.905Z,17.91
2023-04-23T08:04:24.672Z,17.95
2023-04-23T08:05:27.561Z,18.01
2023-04-23T08:06:35.342Z,18.05
2023-04-23T08:07:37.612Z,18.14
2023-04-23T08:08:39.918Z,18.19
2023-04-23T08:09:44.130Z,18.27
2023-04-23T08:10:46.697Z,18.36
2023-04-23T08:11:48.956Z,18.44
2023-04-23T08:12:51.554Z,18.58
2023-04-23T08:13:53.964Z,18.66
2023-04-23T08:14:56.253Z,18.77
2023-04-23T08:16:05.182Z,18.89
2023-04-23T08:17:07.576Z,19.01
2023-04-23T08:18:09.827Z,19.12
2023-04-23T08:19:12.065Z,19.24
2023-04-23T08:20:14.843Z,19.37
2023-04-23T08:21:18.305Z,19.49
2023-04-23T08:22:21.990Z,19.63
2023-04-23T08:23:24.794Z,19.76
2023-04-23T08:24:27.692Z,19.89
2023-04-23T08:25:31.026Z,20.01
2023-04-23T08:26:33.729Z,20.14
2023-04-23T08:27:36.117Z,20.25
2023-04-23T08:28:39.658Z,20.37
2023-04-23T08:29:42.139Z,20.46
2023-04-23T08:30:44.637Z,20.56
2023-04-23T08:31:48.104Z,20.66
2023-04-23T08:32:54.011Z,20.74
2023-04-23T08:33:56.871Z,20.84
2023-04-23T08:34:59.185Z,20.93
2023-04-23T08:36:02.349Z,20.99
2023-04-23T08:37:05.167Z,21.06
2023-04-23T08:38:07.532Z,21.13
2023-04-23T08:39:09.867Z,21.21
2023-04-23T08:40:13.383Z,21.25
2023-04-23T08:41:19.039Z,21.32
2023-04-23T08:42:29.629Z,21.36
2023-04-23T08:43:38.023Z,21.39
2023-04-23T08:44:42.714Z,21.42
2023-04-23T08:45:49.100Z,21.45
2023-04-23T08:46:54.278Z,21.46
2023-04-23T08:48:02.106Z,21.50
2023-04-23T08:49:08.052Z,21.51
2023-04-23T08:50:12.450Z,21.54
2023-04-23T08:51:21.589Z,21.57
2023-04-23T08:52:29.560Z,21.57
2023-04-23T08:53:32.938Z,21.57
2023-04-23T08:54:38.195Z,21.57
2023-04-23T08:55:41.196Z,21.55
2023-04-23T08:56:44.448Z,21.51
2023-04-23T08:57:49.455Z,21.48
2023-04-23T08:58:51.869Z,21.45
2023-04-23T08:59:55.506Z,21.40
2023-04-23T09:00:58.623Z,21.36
2023-04-23T09:02:08.068Z,21.33
2023-04-23T09:03:11.192Z,21.27
2023-04-23T09:04:17.144Z,21.22
2023-04-23T09:05:19.471Z,21.16
2023-04-23T09:06:22.111Z,21.10
2023-04-23T09:07:24.644Z,21.04
2023-04-23T09:08:27.419Z,20.98
2023-04-23T09:09:30.308Z,20.92
2023-04-23T09:10:32.828Z,20.87
2023-04-23T09:11:38.121Z,20.83
2023-04-23T09:12:42.532Z,20.79
2023-04-23T09:13:45.423Z,20.75
2023-04-23T09:14:47.724Z,20.74
2023-04-23T09:15:50.109Z,20.75
2023-04-23T09:16:53.278Z,20.73
2023-04-23T09:17:55.636Z,20.72
2023-04-23T09:19:00.770Z,20.72
2023-04-23T09:20:03.973Z,20.71
2023-04-23T09:21:07.509Z,20.68
2023-04-23T09:22:10.337Z,20.68
2023-04-23T09:23:15.368Z,20.67
2023-04-23T09:24:18.187Z,20.66
2023-04-23T09:25:22.969Z,20.68
2023-04-23T09:26:25.726Z,20.65
2023-04-23T09:27:28.311Z,20.64
2023-04-23T09:28:37.939Z,20.61
2023-04-23T09:29:41.420Z,20.62
2023-04-23T09:30:45.273Z,20.63
2023-04-23T09:31:49.911Z,20.63
2023-04-23T09:32:52.283Z,20.62
2023-04-23T09:33:55.354Z,20.63
2023-04-23T09:34:57.814Z,20.62
2023-04-23T09:36:05.852Z,20.63
2023-04-23T09:37:08.317Z,20.61
2023-04-23T09:38:10.960Z,20.63
2023-04-23T09:39:15.140Z,20.61
2023-04-23T09:40:20.406Z,20.61
2023-04-23T09:41:25.640Z,20.61
2023-04-23T09:42:28.752Z,20.62
2023-04-23T09:43:31.330Z,20.62
2023-04-23T09:44:34.286Z,20.61
2023-04-23T09:45:36.624Z,20.62
2023-04-23T09:46:41.738Z,20.61
2023-04-23T09:47:54.061Z,20.61
2023-04-23T09:48:57.321Z,20.59
2023-04-23T09:49:59.893Z,20.60
2023-04-23T09:51:02.467Z,20.57
2023-04-23T09:52:07.583Z,20.55
2023-04-23T09:53:10.821Z,20.54
2023-04-23T09:54:19.229Z,20.53
2023-04-23T09:55:32.148Z,20.50
2023-04-23T09:56:36.733Z,20.49
2023-04-23T09:57:41.658Z,20.47
2023-04-23T09:58:46.862Z,20.46
2023-04-23T09:59:53.074Z,20.44
2023-04-23T10:01:09.499Z,20.39
2023-04-23T10:02:12.177Z,20.38
2023-04-23T10:03:14.884Z,20.37
2023-04-23T10:04:22.735Z,20.36
2023-04-23T10:05:29.376Z,20.33
2023-04-23T10:06:47.113Z,20.31
2023-04-23T10:08:02.991Z,20.30
2023-04-23T10:09:05.523Z,20.27
2023-04-23T10:10:08.761Z,20.25
2023-04-23T10:11:20.336Z,20.25
2023-04-23T10:13:28.786Z,20.23
2023-04-23T10:14:31.600Z,20.21
2023-04-23T10:15:35.674Z,20.19
2023-04-23T10:16:48.589Z,20.17
2023-04-23T10:17:52.086Z,20.14
2023-04-23T10:18:57.061Z,20.14
2023-04-23T10:20:01.847Z,20.11
2023-04-23T10:21:05.189Z,20.09
2023-04-23T10:22:19.514Z,20.08
2023-04-23T10:23:24.725Z,20.05
2023-04-23T10:24:30.620Z,20.04
2023-04-23T10:25:33.730Z,20.02
2023-04-23T10:26:38.935Z,19.99
2023-04-23T10:27:53.098Z,19.96
2023-04-23T10:28:59.025Z,19.94
2023-04-23T10:30:01.828Z,19.90
2023-04-23T10:31:06.743Z,19.87
2023-04-23T10:32:09.438Z,19.84
2023-04-23T10:33:22.351Z,19.83
2023-04-23T10:34:33.557Z,19.79
2023-04-23T10:35:36.380Z,19.76
2023-04-23T10:36:39.286Z,19.75
2023-04-23T10:37:42.251Z,19.72
2023-04-23T10:38:56.945Z,19.70
2023-04-23T10:40:14.908Z,19.68
2023-04-23T10:41:22.518Z,19.65
2023-04-23T10:42:25.794Z,19.64
2023-04-23T10:43:28.221Z,19.61
2023-04-23T10:45:50.124Z,19.57
2023-04-23T10:46:54.856Z,19.53
2023-04-23T10:47:57.246Z,19.53
2023-04-23T10:49:14.910Z,19.52
2023-04-23T10:50:22.571Z,19.49
2023-04-23T10:52:17.035Z,19.48
2023-04-23T10:52:58.039Z,19.47
2023-04-23T10:54:02.121Z,19.46
2023-04-23T10:55:04.724Z,19.42
2023-04-23T10:56:09.549Z,19.43
2023-04-23T10:57:11.839Z,19.43
2023-04-23T10:58:14.177Z,19.43
2023-04-23T10:59:21.613Z,19.44
2023-04-23T11:00:26.888Z,19.45
2023-04-23T11:01:30.671Z,19.45
2023-04-23T11:02:45.175Z,19.46
2023-04-23T11:03:50.672Z,19.46
2023-04-23T11:04:58.092Z,19.47
2023-04-23T11:06:05.085Z,19.48
2023-04-23T11:07:08.994Z,19.48
2023-04-23T11:08:19.401Z,19.48
2023-04-23T11:09:32.029Z,19.50
2023-04-23T11:10:34.693Z,19.50
2023-04-23T11:11:41.356Z,19.51
2023-04-23T11:12:44.483Z,19.53
2023-04-23T11:13:54.405Z,19.55
2023-04-23T11:14:59.844Z,19.56
2023-04-23T11:16:22.765Z,19.57
2023-04-23T11:17:45.395Z,19.61
2023-04-23T11:19:08.338Z,19.63
2023-04-23T11:20:15.826Z,19.64
2023-04-23T11:21:19.215Z,19.64
2023-04-23T11:22:24.749Z,19.66
2023-04-23T11:23:33.139Z,19.66
2023-04-23T11:24:43.885Z,19.68
2023-04-23T11:25:46.953Z,19.70
2023-04-23T11:26:53.780Z,19.71
2023-04-23T11:27:58.963Z,19.72
2023-04-23T11:29:01.543Z,19.73
2023-04-23T11:30:04.045Z,19.72
2023-04-23T11:31:06.804Z,19.73
2023-04-23T11:32:11.092Z,19.75
2023-04-23T11:33:13.415Z,19.76
2023-04-23T11:34:17.512Z,19.77
2023-04-23T11:35:22.307Z,19.79
2023-04-23T11:36:25.247Z,19.79
2023-04-23T11:37:27.499Z,19.82
2023-04-23T11:38:35.971Z,19.84
2023-04-23T11:39:44.555Z,19.88
2023-04-23T11:40:48.626Z,19.89
2023-04-23T11:41:52.850Z,19.92
2023-04-23T11:42:57.796Z,19.93
2023-04-23T11:44:00.965Z,19.95
2023-04-23T11:45:03.354Z,19.98
2023-04-23T11:46:06.459Z,20.00
2023-04-23T11:47:11.401Z,20.03
2023-04-23T11:48:14.268Z,20.04
2023-04-23T11:49:20.021Z,20.07
2023-04-23T11:50:24.473Z,20.10
2023-04-23T11:51:27.187Z,20.13
2023-04-23T11:52:29.559Z,20.14
2023-04-23T11:53:32.053Z,20.16
2023-04-23T11:54:34.791Z,20.18
2023-04-23T11:55:38.371Z,20.21
2023-04-23T11:56:41.261Z,20.22
2023-04-23T11:57:48.498Z,20.24
2023-04-23T11:59:03.765Z,20.25
2023-04-23T12:00:27.229Z,20.28
2023-04-23T12:01:46.618Z,20.29
2023-04-23T12:03:05.219Z,20.30
2023-04-23T12:04:14.144Z,20.31
2023-04-23T12:05:19.932Z,20.32
2023-04-23T12:06:22.174Z,20.30
2023-04-23T12:07:33.112Z,20.29
2023-04-23T12:08:36.548Z,20.31
2023-04-23T12:09:39.356Z,20.30
2023-04-23T12:10:44.470Z,20.29
2023-04-23T12:11:49.794Z,20.29
2023-04-23T12:12:52.982Z,20.28
2023-04-23T12:13:58.150Z,20.26
2023-04-23T12:15:07.751Z,20.24
2023-04-23T12:16:11.157Z,20.23
2023-04-23T12:17:16.056Z,20.23
2023-04-23T12:18:19.384Z,20.23
2023-04-23T12:19:26.892Z,20.19
2023-04-23T12:20:31.089Z,20.19
2023-04-23T12:21:34.493Z,20.18
2023-04-23T12:22:37.163Z,20.17
2023-04-23T12:23:42.313Z,20.18
2023-04-23T12:24:55.193Z,20.15
2023-04-23T12:25:57.470Z,20.14
2023-04-23T12:27:03.001Z,20.15
2023-04-23T12:28:07.908Z,20.14
2023-04-23T12:29:13.901Z,20.13
2023-04-23T12:30:16.585Z,20.14
2023-04-23T12:31:25.672Z,20.13
2023-04-23T12:32:29.105Z,20.13
2023-04-23T12:33:31.526Z,20.13
2023-04-23T12:35:38.244Z,20.13
2023-04-23T12:36:46.693Z,20.14
2023-04-23T12:37:49.106Z,20.14
2023-04-23T12:38:51.391Z,20.16
2023-04-23T12:39:56.829Z,20.16
2023-04-23T12:41:00.357Z,20.19
2023-04-23T12:42:05.468Z,20.22
2023-04-23T12:43:07.850Z,20.23
2023-04-23T12:44:10.338Z,20.26
2023-04-23T12:45:12.661Z,20.28
2023-04-23T12:46:17.672Z,20.31
2023-04-23T12:47:19.941Z,20.31
2023-04-23T12:48:23.461Z,20.34
2023-04-23T12:49:29.749Z,20.35
2023-04-23T12:50:32.091Z,20.37
2023-04-23T12:51:34.408Z,20.38
2023-04-23T12:52:38.342Z,20.40
2023-04-23T12:53:40.687Z,20.41
2023-04-23T12:54:45.265Z,20.42
2023-04-23T12:55:48.652Z,20.44
2023-04-23T12:56:54.293Z,20.44
2023-04-23T12:57:59.710Z,20.46
2023-04-23T12:59:02.222Z,20.44
2023-04-23T13:00:05.570Z,20.45
2023-04-23T13:01:07.961Z,20.44
2023-04-23T13:02:10.385Z,20.45
2023-04-23T13:03:15.810Z,20.45
2023-04-23T13:04:18.396Z,20.46
2023-04-23T13:05:20.673Z,20.45
2023-04-23T13:06:25.244Z,20.45
2023-04-23T13:07:27.923Z,20.45
2023-04-23T13:08:30.309Z,20.45
2023-04-23T13:09:32.588Z,20.43
2023-04-23T13:10:34.890Z,20.42
2023-04-23T13:11:38.632Z,20.42
2023-04-23T13:12:41.595Z,20.41
2023-04-23T13:13:43.937Z,20.41
2023-04-23T13:14:46.193Z,20.42
2023-04-23T13:15:49.717Z,20.42
2023-04-23T13:16:52.950Z,20.42
2023-04-23T13:17:55.261Z,20.41
2023-04-23T13:18:58.325Z,20.42
2023-04-23T13:20:00.787Z,20.41
2023-04-23T13:21:04.296Z,20.42
2023-04-23T13:22:07.385Z,20.42
2023-04-23T13:23:12.969Z,20.44
2023-04-23T13:24:19.480Z,20.45
2023-04-23T13:25:21.795Z,20.47
2023-04-23T13:26:24.256Z,20.48
2023-04-23T13:27:29.342Z,20.50
2023-04-23T13:28:31.797Z,20.53
2023-04-23T13:29:34.217Z,20.55
2023-04-23T13:30:36.463Z,20.57
2023-04-23T13:31:38.720Z,20.59
2023-04-23T13:32:41.019Z,20.63
2023-04-23T13:33:43.321Z,20.65
2023-04-23T13:34:45.892Z,20.67
2023-04-23T13:35:48.873Z,20.69
2023-04-23T13:36:53.814Z,20.72
2023-04-23T13:37:56.096Z,20.73
2023-04-23T13:38:58.339Z,20.73
2023-04-23T13:40:00.642Z,20.76
2023-04-23T13:41:04.500Z,20.76
2023-04-23T13:42:09.943Z,20.79
2023-04-23T13:43:12.618Z,20.79
2023-04-23T13:44:15.915Z,20.79
2023-04-23T13:45:18.200Z,20.80
2023-04-23T13:46:20.645Z,20.81
2023-04-23T13:47:23.075Z,20.81
2023-04-23T13:48:28.950Z,20.82